Time;durP1;ratioP1;P1;durP2;ratioP2;P2;SDS_P1;SDS_P2;PMS_P1;PMS_P2;Temp;Humidity;BMP_temperature;BMP_pressure;BME280_temperature;BME280_humidity;BME280_pressure;Samples;Min_cycle;Max_cycle;Signal;HPM_P1;HPM_P2
2021/08/16 00:00:22;;;;;;;4.95;3.40;;;19.90;72.10;;;;;;2611481;54;20037;-74
2021/08/16 00:02:48;;;;;;;5.20;3.20;;;19.90;72.00;;;;;;2611169;54;20118;-75
2021/08/16 00:05:15;;;;;;;6.43;3.40;;;19.90;71.70;;;;;;2610742;54;20030;-75
2021/08/16 00:07:42;;;;;;;7.55;3.30;;;19.90;71.20;;;;;;2611259;54;20051;-75
2021/08/16 00:10:08;;;;;;;4.35;2.90;;;19.90;70.90;;;;;;2611065;54;20090;-75
2021/08/16 00:12:34;;;;;;;7.00;3.47;;;19.90;70.90;;;;;;2611028;54;20053;-75
2021/08/16 00:15:00;;;;;;;4.63;2.95;;;19.80;72.20;;;;;;2610464;54;20031;-74
2021/08/16 00:17:26;;;;;;;6.60;3.97;;;19.80;72.90;;;;;;2610143;47;20030;-74
2021/08/16 00:19:52;;;;;;;5.32;3.53;;;19.70;72.90;;;;;;2610931;54;20045;-74
2021/08/16 00:22:17;;;;;;;4.40;3.13;;;19.70;73.30;;;;;;2611062;54;20038;-74
2021/08/16 00:24:43;;;;;;;5.50;3.47;;;19.70;73.50;;;;;;2611299;39;20753;-74
2021/08/16 00:27:09;;;;;;;4.22;2.80;;;19.60;73.80;;;;;;2610942;54;20117;-75
2021/08/16 00:29:35;;;;;;;8.50;3.53;;;19.60;73.40;;;;;;2610824;54;20031;-75
2021/08/16 00:32:01;;;;;;;3.55;3.03;;;19.60;73.00;;;;;;2610961;54;20030;-75
2021/08/16 00:34:26;;;;;;;6.90;3.60;;;19.60;74.00;;;;;;2610558;39;20431;-74
2021/08/16 00:36:52;;;;;;;5.57;3.47;;;19.60;73.40;;;;;;2610703;54;20065;-74
2021/08/16 00:39:18;;;;;;;4.70;3.42;;;19.50;73.30;;;;;;2610091;54;20022;-75
2021/08/16 00:41:48;;;;;;;3.92;3.20;;;19.50;73.00;;;;;;2610936;54;20063;-76
2021/08/16 00:44:14;;;;;;;5.70;2.97;;;19.50;73.30;;;;;;2610887;54;20061;-75
2021/08/16 00:46:40;;;;;;;3.85;2.85;;;19.50;73.30;;;;;;2610995;54;20054;-75
2021/08/16 00:49:06;;;;;;;5.43;3.33;;;19.50;72.30;;;;;;2610747;54;20055;-75
2021/08/16 00:51:35;;;;;;;5.22;3.47;;;19.60;73.30;;;;;;2610280;54;20031;-75
2021/08/16 00:54:04;;;;;;;5.50;3.35;;;19.60;73.60;;;;;;2610931;54;20046;-75
2021/08/16 00:56:30;;;;;;;7.28;3.42;;;19.60;73.00;;;;;;2611079;54;20927;-74
2021/08/16 00:59:06;;;;;;;4.85;3.05;;;19.60;73.40;;;;;;2610969;54;20022;-74
2021/08/16 01:01:32;;;;;;;5.57;3.55;;;19.60;73.30;;;;;;2610283;54;20284;-75
2021/08/16 01:03:58;;;;;;;5.28;3.20;;;19.60;73.20;;;;;;2611112;54;20066;-74
2021/08/16 01:06:24;;;;;;;5.50;2.72;;;19.60;72.70;;;;;;2610169;51;20030;-74
2021/08/16 01:08:50;;;;;;;5.07;3.15;;;19.60;71.90;;;;;;2610749;54;20029;-75
2021/08/16 01:11:17;;;;;;;5.38;3.35;;;19.60;72.20;;;;;;2610271;54;20145;-75
2021/08/16 01:13:44;;;;;;;3.75;2.65;;;19.60;72.20;;;;;;2611275;54;20034;-75
2021/08/16 01:16:10;;;;;;;6.15;3.20;;;19.60;71.80;;;;;;2610957;54;20866;-75
2021/08/16 01:18:36;;;;;;;6.60;3.03;;;19.60;71.30;;;;;;2610202;47;20037;-75
2021/08/16 01:21:05;;;;;;;5.53;2.92;;;19.60;71.60;;;;;;2610968;54;20038;-74
2021/08/16 01:23:31;;;;;;;4.55;2.60;;;19.60;72.60;;;;;;2610683;54;20034;-75
2021/08/16 01:25:57;;;;;;;5.82;2.92;;;19.60;72.40;;;;;;2609873;54;20034;-75
2021/08/16 01:28:24;;;;;;;4.53;3.00;;;19.60;72.50;;;;;;2610423;54;20073;-75
2021/08/16 01:30:53;;;;;;;5.28;2.97;;;19.60;72.30;;;;;;2610014;47;20034;-75
2021/08/16 01:33:19;;;;;;;4.95;3.28;;;19.50;72.10;;;;;;2610756;54;20034;-75
2021/08/16 01:35:45;;;;;;;3.90;2.90;;;19.60;72.00;;;;;;2610728;54;20110;-75
2021/08/16 01:38:11;;;;;;;4.38;3.20;;;19.60;72.50;;;;;;2610470;54;20038;-74
2021/08/16 01:40:36;;;;;;;4.88;2.80;;;19.60;72.20;;;;;;2610483;39;20518;-74
2021/08/16 01:43:02;;;;;;;4.10;3.20;;;19.50;72.00;;;;;;2610777;54;20546;-74
2021/08/16 01:45:28;;;;;;;6.57;3.13;;;19.50;71.80;;;;;;2610352;54;20030;-74
2021/08/16 01:47:54;;;;;;;6.80;3.47;;;19.50;72.00;;;;;;2609878;54;20625;-75
2021/08/16 01:50:20;;;;;;;6.10;3.05;;;19.50;72.00;;;;;;2610775;54;20030;-75
2021/08/16 01:52:45;;;;;;;4.72;2.83;;;19.50;71.60;;;;;;2609897;47;20026;-75
2021/08/16 01:55:11;;;;;;;4.60;2.83;;;19.50;71.50;;;;;;2610687;54;20034;-74
2021/08/16 01:57:37;;;;;;;5.68;2.90;;;19.50;70.40;;;;;;2610308;54;20580;-75
2021/08/16 02:00:04;;;;;;;5.47;3.03;;;19.50;70.70;;;;;;2610592;54;20045;-74
2021/08/16 02:02:37;;;;;;;5.75;3.10;;;19.50;71.20;;;;;;2610691;54;20061;-75
2021/08/16 02:05:03;;;;;;;3.95;2.83;;;19.40;71.20;;;;;;2610349;54;20039;-74
2021/08/16 02:07:30;;;;;;;7.90;3.33;;;19.40;71.70;;;;;;2610174;54;20037;-74
2021/08/16 02:09:56;;;;;;;4.97;3.13;;;19.40;72.10;;;;;;2610243;54;20153;-75
2021/08/16 02:12:21;;;;;;;5.05;2.90;;;19.40;72.10;;;;;;2610908;54;20597;-75
2021/08/16 02:14:47;;;;;;;5.55;3.25;;;19.40;71.60;;;;;;2610705;54;20029;-74
2021/08/16 02:17:13;;;;;;;4.53;3.33;;;19.30;72.10;;;;;;2610273;54;20114;-74
2021/08/16 02:19:39;;;;;;;6.20;2.70;;;19.30;71.80;;;;;;2609890;54;20041;-74
2021/08/16 02:22:04;;;;;;;4.53;3.05;;;19.30;72.00;;;;;;2610269;54;20054;-74
2021/08/16 02:24:30;;;;;;;4.82;3.28;;;19.20;72.60;;;;;;2609781;54;20118;-75
2021/08/16 02:26:56;;;;;;;5.97;3.60;;;19.20;73.20;;;;;;2610223;54;20728;-74
2021/08/16 02:29:22;;;;;;;3.53;2.78;;;19.20;73.60;;;;;;2609475;54;20026;-74
2021/08/16 02:31:48;;;;;;;7.57;3.08;;;19.20;73.50;;;;;;2610395;54;20055;-74
2021/08/16 02:34:13;;;;;;;6.18;3.10;;;19.20;72.90;;;;;;2610346;54;20622;-74
2021/08/16 02:36:39;;;;;;;4.05;3.08;;;19.10;72.90;;;;;;2610272;54;20034;-74
2021/08/16 02:39:05;;;;;;;3.65;3.00;;;19.10;73.10;;;;;;2610212;54;20022;-74
2021/08/16 02:41:31;;;;;;;6.25;3.00;;;19.10;72.90;;;;;;2610382;54;20049;-74
2021/08/16 02:43:57;;;;;;;4.72;3.22;;;19.20;73.10;;;;;;2610511;54;20019;-74
2021/08/16 02:46:22;;;;;;;4.82;3.10;;;19.20;72.30;;;;;;2610510;54;20662;-74
2021/08/16 02:48:48;;;;;;;5.03;3.10;;;19.30;72.50;;;;;;2610546;54;20026;-74
2021/08/16 02:51:14;;;;;;;3.58;2.67;;;19.30;72.10;;;;;;2610259;54;20038;-74
2021/08/16 02:53:40;;;;;;;5.15;2.58;;;19.40;72.10;;;;;;2609454;47;20159;-74
2021/08/16 02:56:05;;;;;;;5.03;2.85;;;19.40;70.90;;;;;;2610030;54;20042;-74
2021/08/16 02:58:31;;;;;;;4.50;2.88;;;19.60;68.50;;;;;;2610654;39;20546;-74
2021/08/16 03:00:57;;;;;;;5.05;2.83;;;19.70;68.60;;;;;;2610131;54;20031;-74
2021/08/16 03:03:22;;;;;;;3.78;2.92;;;19.80;68.60;;;;;;2610196;54;20038;-74
2021/08/16 03:05:48;;;;;;;5.80;3.28;;;19.90;68.70;;;;;;2610193;54;20030;-74
2021/08/16 03:08:14;;;;;;;10.80;2.95;;;20.00;68.10;;;;;;2609824;54;20055;-74
2021/08/16 03:10:40;;;;;;;4.07;2.67;;;20.00;68.90;;;;;;2609308;54;20154;-74
2021/08/16 03:13:06;;;;;;;6.18;2.90;;;20.10;68.40;;;;;;2609657;54;20046;-74
2021/08/16 03:15:32;;;;;;;4.15;2.70;;;20.10;68.20;;;;;;2609839;54;20023;-74
2021/08/16 03:17:59;;;;;;;5.47;2.60;;;20.20;67.60;;;;;;2610006;54;20030;-74
2021/08/16 03:20:26;;;;;;;3.92;2.90;;;20.20;66.80;;;;;;2609944;54;20046;-74
2021/08/16 03:22:52;;;;;;;5.13;2.35;;;20.30;67.20;;;;;;2610024;54;20586;-74
2021/08/16 03:25:17;;;;;;;4.13;2.50;;;20.30;67.50;;;;;;2610060;54;20041;-74
2021/08/16 03:27:43;;;;;;;6.18;2.72;;;20.30;67.70;;;;;;2609484;54;20034;-74
2021/08/16 03:30:11;;;;;;;5.38;3.00;;;20.40;66.60;;;;;;2610277;54;20062;-74
2021/08/16 03:32:37;;;;;;;5.60;2.60;;;20.50;66.00;;;;;;2610576;54;20038;-74
2021/08/16 03:35:04;;;;;;;3.78;2.72;;;20.60;64.50;;;;;;2610074;54;20055;-74
2021/08/16 03:37:33;;;;;;;4.47;2.63;;;20.70;64.40;;;;;;2609403;54;20038;-74
2021/08/16 03:39:59;;;;;;;4.45;2.85;;;20.80;63.60;;;;;;2609676;54;20574;-74
2021/08/16 03:42:25;;;;;;;3.10;2.70;;;20.90;64.40;;;;;;2610179;54;20841;-73
2021/08/16 03:44:51;;;;;;;4.22;2.60;;;20.90;64.20;;;;;;2610238;54;20030;-74
2021/08/16 03:47:17;;;;;;;4.93;2.58;;;21.00;63.50;;;;;;2610164;54;20058;-74
2021/08/16 03:49:43;;;;;;;7.97;2.90;;;21.00;63.60;;;;;;2610358;54;20038;-74
2021/08/16 03:52:09;;;;;;;5.70;2.45;;;21.10;63.50;;;;;;2610641;39;20754;-74
2021/08/16 03:54:35;;;;;;;5.22;2.10;;;21.10;63.50;;;;;;2610388;54;20042;-75
2021/08/16 03:57:01;;;;;;;4.28;2.35;;;21.10;64.70;;;;;;2610176;39;20269;-74
2021/08/16 03:59:26;;;;;;;4.68;2.38;;;21.00;65.80;;;;;;2609709;46;20042;-74
2021/08/16 04:01:52;;;;;;;4.75;2.53;;;21.00;65.70;;;;;;2610741;39;20578;-74
2021/08/16 04:04:18;;;;;;;4.43;2.20;;;21.00;64.90;;;;;;2609501;47;20078;-74
2021/08/16 04:06:44;;;;;;;11.13;2.70;;;21.00;65.10;;;;;;2609295;47;20162;-75
2021/08/16 04:09:11;;;;;;;5.18;2.30;;;21.00;64.40;;;;;;2609801;54;20634;-74
2021/08/16 04:11:37;;;;;;;3.40;2.38;;;21.00;64.80;;;;;;2610480;54;20134;-74
2021/08/16 04:14:03;;;;;;;3.75;2.47;;;21.10;65.30;;;;;;2611044;54;20087;-74
2021/08/16 04:16:29;;;;;;;7.72;2.45;;;21.20;64.70;;;;;;2610451;54;20744;-75
2021/08/16 04:18:55;;;;;;;3.70;2.42;;;21.20;63.90;;;;;;2610862;54;20030;-75
2021/08/16 04:21:21;;;;;;;4.43;2.60;;;21.30;63.50;;;;;;2610442;54;20026;-74
2021/08/16 04:23:46;;;;;;;3.75;2.30;;;21.40;63.50;;;;;;2611389;54;20062;-75
2021/08/16 04:26:12;;;;;;;4.07;2.58;;;21.50;63.60;;;;;;2611540;54;20582;-75
2021/08/16 04:28:38;;;;;;;2.90;1.75;;;21.50;63.00;;;;;;2611309;54;20036;-75
2021/08/16 04:31:05;;;;;;;3.08;2.20;;;21.50;63.30;;;;;;2611153;54;20944;-74
2021/08/16 04:33:30;;;;;;;4.55;2.40;;;21.50;62.60;;;;;;2611069;54;20031;-75
2021/08/16 04:35:56;;;;;;;5.75;2.45;;;21.50;63.30;;;;;;2610743;54;20027;-75
2021/08/16 04:38:23;;;;;;;4.88;2.03;;;21.60;62.90;;;;;;2610964;54;20126;-75
2021/08/16 04:40:53;;;;;;;3.17;2.25;;;21.50;62.90;;;;;;2610808;54;20182;-74
2021/08/16 04:43:20;;;;;;;3.88;2.55;;;21.50;62.60;;;;;;2610842;54;20042;-74
2021/08/16 04:45:46;;;;;;;5.68;2.25;;;21.50;63.20;;;;;;2611037;54;20045;-74
2021/08/16 04:48:12;;;;;;;5.13;2.90;;;21.40;63.80;;;;;;2610977;54;20038;-75
2021/08/16 04:50:38;;;;;;;4.32;2.58;;;21.30;64.70;;;;;;2609806;54;20062;-74
2021/08/16 04:53:04;;;;;;;4.65;2.13;;;21.30;65.00;;;;;;2610895;54;20038;-74
2021/08/16 04:55:30;;;;;;;4.78;2.20;;;21.20;64.80;;;;;;2610649;54;20027;-75
2021/08/16 04:57:55;;;;;;;6.97;2.25;;;21.20;65.60;;;;;;2610630;54;20042;-74
2021/08/16 05:00:26;;;;;;;3.55;2.10;;;21.20;66.20;;;;;;2610041;47;20034;-74
2021/08/16 05:02:55;;;;;;;4.43;2.35;;;21.10;66.30;;;;;;2610303;47;20034;-75
2021/08/16 05:05:28;;;;;;;2.58;2.20;;;21.00;66.60;;;;;;2610953;54;20632;-74
2021/08/16 05:07:55;;;;;;;2.75;2.20;;;21.00;67.40;;;;;;2611033;54;20061;-74
2021/08/16 05:10:22;;;;;;;4.18;2.30;;;21.00;67.90;;;;;;2611191;54;20068;-74
2021/08/16 05:12:49;;;;;;;6.50;2.08;;;20.90;67.50;;;;;;2610928;54;20038;-74
2021/08/16 05:15:15;;;;;;;4.50;2.45;;;20.90;68.50;;;;;;2610393;54;20031;-74
2021/08/16 05:17:41;;;;;;;3.85;2.17;;;20.90;69.20;;;;;;2610645;54;20054;-74
2021/08/16 05:20:08;;;;;;;4.13;2.40;;;20.90;69.70;;;;;;2610563;54;20034;-74
2021/08/16 05:22:37;;;;;;;7.43;2.53;;;20.90;69.90;;;;;;2610789;54;20648;-75
2021/08/16 05:25:04;;;;;;;3.15;2.30;;;20.90;68.70;;;;;;2610117;54;20034;-74
2021/08/16 05:27:30;;;;;;;4.22;2.17;;;20.90;68.40;;;;;;2610460;39;20450;-74
2021/08/16 05:29:56;;;;;;;5.07;2.22;;;20.90;68.40;;;;;;2610642;54;20046;-74
2021/08/16 05:32:21;;;;;;;3.20;2.10;;;21.00;68.70;;;;;;2610695;54;20058;-74
2021/08/16 05:34:47;;;;;;;4.65;2.88;;;21.00;69.40;;;;;;2610698;54;20034;-74
2021/08/16 05:37:13;;;;;;;3.05;2.10;;;21.10;69.10;;;;;;2610357;54;20074;-75
2021/08/16 05:39:38;;;;;;;6.03;2.35;;;21.10;68.40;;;;;;2610699;54;20038;-74
2021/08/16 05:42:04;;;;;;;2.95;1.95;;;21.20;69.20;;;;;;2610547;54;20034;-74
2021/08/16 05:44:30;;;;;;;8.25;2.72;;;21.30;70.10;;;;;;2610642;54;20055;-74
2021/08/16 05:46:55;;;;;;;4.57;2.03;;;21.40;69.00;;;;;;2610471;54;20045;-74
2021/08/16 05:49:22;;;;;;;11.43;2.55;;;21.50;68.70;;;;;;2610250;54;20050;-74
2021/08/16 05:51:48;;;;;;;4.50;2.38;;;21.70;68.30;;;;;;2611181;39;20556;-74
2021/08/16 05:54:13;;;;;;;2.40;2.13;;;21.80;67.40;;;;;;2610493;54;20069;-74
2021/08/16 05:56:39;;;;;;;3.92;2.10;;;22.00;67.00;;;;;;2610534;54;20037;-74
2021/08/16 05:59:05;;;;;;;4.70;2.22;;;22.10;66.50;;;;;;2610365;54;20190;-74
2021/08/16 06:01:35;;;;;;;7.88;2.47;;;22.10;66.20;;;;;;2610555;39;20434;-75
2021/08/16 06:04:01;;;;;;;5.30;2.78;;;22.20;65.50;;;;;;2609741;54;20035;-75
2021/08/16 06:06:26;;;;;;;4.32;2.33;;;22.20;65.30;;;;;;2610548;54;20058;-74
2021/08/16 06:08:52;;;;;;;4.28;1.73;;;22.20;65.60;;;;;;2610264;54;20034;-74
2021/08/16 06:11:18;;;;;;;4.18;2.15;;;22.20;66.10;;;;;;2610098;39;20435;-74
2021/08/16 06:13:43;;;;;;;6.32;2.60;;;22.20;66.40;;;;;;2610319;54;20062;-74
2021/08/16 06:16:09;;;;;;;6.40;2.50;;;22.20;67.20;;;;;;2609859;51;20026;-75
2021/08/16 06:18:35;;;;;;;4.72;2.15;;;22.30;66.20;;;;;;2610165;54;20060;-74
2021/08/16 06:21:00;;;;;;;4.70;2.70;;;22.20;66.40;;;;;;2610336;54;20066;-74
2021/08/16 06:23:26;;;;;;;7.05;2.95;;;22.20;66.40;;;;;;2609991;54;20074;-74
2021/08/16 06:25:52;;;;;;;6.40;2.50;;;22.30;66.10;;;;;;2609578;47;20579;-74
2021/08/16 06:28:17;;;;;;;4.53;2.83;;;22.20;66.50;;;;;;2610182;54;20042;-74
2021/08/16 06:30:43;;;;;;;6.78;3.45;;;22.20;66.80;;;;;;2610075;54;20038;-75
2021/08/16 06:33:09;;;;;;;4.53;2.88;;;22.20;67.30;;;;;;2610390;54;20038;-74
2021/08/16 06:35:36;;;;;;;9.13;3.38;;;22.20;67.30;;;;;;2610414;54;20049;-74
2021/08/16 06:38:02;;;;;;;5.93;3.63;;;22.30;67.10;;;;;;2610753;54;20054;-74
2021/08/16 06:40:28;;;;;;;7.38;3.38;;;22.20;67.50;;;;;;2611002;54;20063;-74
2021/08/16 06:42:54;;;;;;;10.18;3.95;;;22.20;68.10;;;;;;2610988;54;20038;-75
2021/08/16 06:45:20;;;;;;;8.60;3.75;;;22.30;68.20;;;;;;2609853;47;20070;-75
2021/08/16 06:47:45;;;;;;;10.07;3.88;;;22.40;67.50;;;;;;2610457;54;20069;-74
2021/08/16 06:50:11;;;;;;;6.93;3.08;;;22.50;67.50;;;;;;2609783;54;20039;-75
2021/08/16 06:52:37;;;;;;;7.60;3.70;;;22.50;67.40;;;;;;2610438;54;20034;-75
2021/08/16 06:55:03;;;;;;;4.22;2.60;;;22.50;66.90;;;;;;2610403;54;20041;-75
2021/08/16 06:57:31;;;;;;;9.00;3.60;;;22.50;67.20;;;;;;2609219;47;20063;-75
2021/08/16 06:59:57;;;;;;;5.43;2.90;;;22.60;67.20;;;;;;2610557;54;20033;-75
2021/08/16 07:02:22;;;;;;;6.45;3.28;;;22.60;67.00;;;;;;2610198;54;20042;-75
2021/08/16 07:04:49;;;;;;;6.38;3.35;;;22.60;66.90;;;;;;2610268;54;20038;-75
2021/08/16 07:07:14;;;;;;;6.32;3.15;;;22.60;67.20;;;;;;2609923;54;20038;-74
2021/08/16 07:09:40;;;;;;;7.20;3.53;;;22.60;67.00;;;;;;2610436;54;20660;-75
2021/08/16 07:12:06;;;;;;;7.28;3.08;;;22.60;67.10;;;;;;2610189;54;20030;-75
2021/08/16 07:14:32;;;;;;;7.85;3.08;;;22.50;67.90;;;;;;2610507;54;20034;-74
2021/08/16 07:16:57;;;;;;;6.60;3.35;;;22.50;68.30;;;;;;2610164;54;20034;-74
2021/08/16 07:19:23;;;;;;;6.78;3.72;;;22.50;67.80;;;;;;2609879;54;20022;-74
2021/08/16 07:21:49;;;;;;;6.75;3.30;;;22.60;67.20;;;;;;2609643;54;20079;-75
2021/08/16 07:24:15;;;;;;;7.18;3.83;;;22.60;67.60;;;;;;2610213;54;20022;-75
2021/08/16 07:26:41;;;;;;;8.00;4.00;;;22.60;67.40;;;;;;2610210;54;20946;-75
2021/08/16 07:29:06;;;;;;;7.68;4.25;;;22.60;66.60;;;;;;2609782;54;20042;-75
2021/08/16 07:31:32;;;;;;;8.07;4.35;;;22.60;66.10;;;;;;2609183;54;20042;-75
2021/08/16 07:33:58;;;;;;;10.15;5.40;;;22.50;66.10;;;;;;2610260;39;20253;-75
2021/08/16 07:36:23;;;;;;;9.73;5.15;;;22.50;65.50;;;;;;2610260;54;20035;-75
2021/08/16 07:38:49;;;;;;;9.15;4.30;;;22.50;65.00;;;;;;2610326;39;20412;-75
2021/08/16 07:41:15;;;;;;;7.30;4.75;;;22.50;65.10;;;;;;2609901;54;20038;-74
2021/08/16 07:43:41;;;;;;;7.00;4.80;;;22.50;65.10;;;;;;2609485;54;20038;-74
2021/08/16 07:46:06;;;;;;;6.43;4.60;;;22.50;66.50;;;;;;2610308;54;20045;-74
2021/08/16 07:48:32;;;;;;;10.40;4.40;;;22.60;64.60;;;;;;2610486;54;20038;-74
2021/08/16 07:50:58;;;;;;;7.53;4.13;;;22.60;64.00;;;;;;2610878;54;20125;-73
2021/08/16 07:53:23;;;;;;;5.60;3.80;;;22.60;63.80;;;;;;2610887;54;20648;-74
2021/08/16 07:55:49;;;;;;;7.85;4.10;;;22.50;63.10;;;;;;2610737;54;20038;-75
2021/08/16 07:58:15;;;;;;;8.07;4.07;;;22.40;63.80;;;;;;2610554;54;20034;-67
2021/08/16 08:00:40;;;;;;;5.60;4.00;;;22.40;64.10;;;;;;2610937;54;20058;-73
2021/08/16 08:03:06;;;;;;;10.27;3.85;;;22.40;64.10;;;;;;2610904;54;20037;-73
2021/08/16 08:05:32;;;;;;;7.82;3.97;;;22.40;64.40;;;;;;2610142;51;20041;-74
2021/08/16 08:07:59;;;;;;;7.18;3.75;;;22.50;63.80;;;;;;2611158;39;20538;-74
2021/08/16 08:10:24;;;;;;;8.82;4.00;;;22.50;64.60;;;;;;2610497;54;20030;-74
2021/08/16 08:12:50;;;;;;;8.35;4.07;;;22.60;63.60;;;;;;2610776;54;20060;-70
2021/08/16 08:15:17;;;;;;;7.88;3.95;;;22.70;63.60;;;;;;2609790;54;20090;-83
2021/08/16 08:17:43;;;;;;;7.57;3.80;;;22.80;62.40;;;;;;2609194;54;20034;-76
2021/08/16 08:20:09;;;;;;;6.95;3.67;;;22.70;62.50;;;;;;2609976;54;20041;-76
2021/08/16 08:22:35;;;;;;;5.30;3.42;;;22.70;62.10;;;;;;2610313;54;20871;-76
2021/08/16 08:25:02;;;;;;;7.00;3.22;;;22.70;63.20;;;;;;2609120;39;20534;-76
2021/08/16 08:27:28;;;;;;;5.82;2.90;;;22.80;62.60;;;;;;2609908;54;20114;-76
2021/08/16 08:29:54;;;;;;;6.28;3.13;;;22.90;61.00;;;;;;2610033;54;20579;-77
2021/08/16 08:32:19;;;;;;;6.60;3.00;;;22.90;60.70;;;;;;2609271;54;20114;-76
2021/08/16 08:34:45;;;;;;;7.88;3.33;;;22.80;60.80;;;;;;2610595;54;20030;-76
2021/08/16 08:37:13;;;;;;;8.88;3.38;;;22.80;61.60;;;;;;2610299;54;20038;-76
2021/08/16 08:39:44;;;;;;;7.70;3.70;;;22.80;61.20;;;;;;2610659;54;20149;-76
2021/08/16 08:42:11;;;;;;;6.68;3.47;;;22.80;60.50;;;;;;2610734;54;20142;-75
2021/08/16 08:44:38;;;;;;;7.03;3.50;;;22.80;59.10;;;;;;2611179;54;20045;-75
2021/08/16 08:47:05;;;;;;;7.43;4.03;;;22.70;60.40;;;;;;2610432;54;20149;-76
2021/08/16 08:49:32;;;;;;;5.60;3.40;;;22.80;61.30;;;;;;2610440;54;20030;-75
2021/08/16 08:51:59;;;;;;;5.45;3.22;;;23.00;59.50;;;;;;2610614;54;20039;-76
2021/08/16 08:54:29;;;;;;;6.20;3.00;;;23.10;59.30;;;;;;2610784;54;20034;-77
2021/08/16 08:56:56;;;;;;;6.55;3.45;;;23.10;59.30;;;;;;2611065;54;20058;-77
2021/08/16 08:59:22;;;;;;;7.50;3.10;;;23.10;58.80;;;;;;2611024;54;20033;-77
2021/08/16 09:01:57;;;;;;;6.75;2.92;;;23.10;58.70;;;;;;2611055;54;20030;-77
2021/08/16 09:04:24;;;;;;;7.65;3.38;;;23.00;58.00;;;;;;2610889;54;20037;-76
2021/08/16 09:06:50;;;;;;;6.60;3.17;;;23.00;59.00;;;;;;2611229;39;20540;-78
2021/08/16 09:09:18;;;;;;;6.88;3.13;;;23.00;60.00;;;;;;2610288;54;20126;-76
2021/08/16 09:11:49;;;;;;;6.60;3.15;;;23.20;58.70;;;;;;2610764;54;20038;-77
2021/08/16 09:14:15;;;;;;;9.95;3.30;;;23.40;58.00;;;;;;2610039;47;20030;-76
2021/08/16 09:16:44;;;;;;;5.65;3.15;;;23.60;57.10;;;;;;2610208;54;20034;-76
2021/08/16 09:19:18;;;;;;;6.50;2.75;;;23.70;57.10;;;;;;2610360;54;20061;-75
2021/08/16 09:22:10;;;;;;;5.63;2.67;;;23.80;57.70;;;;;;2609624;54;20038;-77
2021/08/16 09:24:35;;;;;;;6.25;3.03;;;23.90;56.30;;;;;;2611086;54;20042;-77
2021/08/16 09:27:10;;;;;;;11.60;3.05;;;24.00;55.50;;;;;;2610338;54;20038;-77
2021/08/16 09:29:46;;;;;;;6.53;2.77;;;24.10;55.30;;;;;;2610729;54;20034;-78
2021/08/16 09:32:12;;;;;;;5.35;2.38;;;24.00;54.60;;;;;;2609503;54;20146;-77
2021/08/16 09:34:42;;;;;;;4.90;2.25;;;24.10;53.10;;;;;;2609392;47;20023;-72
2021/08/16 09:37:23;;;;;;;7.95;2.50;;;24.10;55.30;;;;;;2609688;54;20038;-79
2021/08/16 09:40:08;;;;;;;7.35;2.55;;;24.00;54.00;;;;;;2609768;54;20910;-74
2021/08/16 09:42:44;;;;;;;7.90;3.03;;;23.90;53.10;;;;;;2608494;54;20047;-74
2021/08/16 09:45:11;;;;;;;4.25;2.50;;;24.00;53.90;;;;;;2609637;54;20034;-74
2021/08/16 09:47:45;;;;;;;6.07;2.30;;;24.10;51.80;;;;;;2607371;47;20039;-74
2021/08/16 09:50:12;;;;;;;5.78;2.53;;;24.10;53.00;;;;;;2609256;54;20065;-73
2021/08/16 09:52:40;;;;;;;5.50;2.45;;;24.00;51.90;;;;;;2610328;54;20065;-74
2021/08/16 09:55:07;;;;;;;6.82;2.92;;;24.00;52.90;;;;;;2609353;54;20046;-75
2021/08/16 09:57:33;;;;;;;3.58;1.75;;;24.10;53.90;;;;;;2609280;54;20041;-75
2021/08/16 09:59:59;;;;;;;4.43;2.08;;;24.30;52.60;;;;;;2608807;54;20038;-75
2021/08/16 10:02:28;;;;;;;7.85;3.00;;;24.40;53.00;;;;;;2609639;54;20042;-75
2021/08/16 10:04:58;;;;;;;4.15;2.42;;;24.60;53.40;;;;;;2608486;47;20150;-75
2021/08/16 10:07:28;;;;;;;4.85;2.65;;;24.70;51.70;;;;;;2608206;54;20072;-75
2021/08/16 10:09:57;;;;;;;5.22;2.33;;;24.70;51.10;;;;;;2608700;47;20038;-75
2021/08/16 10:12:23;;;;;;;4.18;2.40;;;24.60;52.10;;;;;;2609691;54;20043;-75
2021/08/16 10:14:51;;;;;;;6.00;2.92;;;24.60;53.00;;;;;;2609696;54;20057;-77
2021/08/16 10:17:18;;;;;;;7.03;2.45;;;24.60;52.70;;;;;;2609848;54;20038;-77
2021/08/16 10:19:45;;;;;;;3.00;2.30;;;24.60;52.00;;;;;;2610013;54;20042;-78
2021/08/16 10:22:11;;;;;;;6.40;2.70;;;24.60;51.90;;;;;;2609929;54;20042;-77
2021/08/16 10:24:36;;;;;;;3.58;2.05;;;24.60;52.00;;;;;;2609951;39;20452;-77
2021/08/16 10:27:03;;;;;;;6.68;2.53;;;24.70;52.10;;;;;;2609463;54;20149;-75
2021/08/16 10:29:33;;;;;;;3.63;2.50;;;24.80;50.80;;;;;;2609651;54;20712;-74
2021/08/16 10:32:00;;;;;;;4.30;2.30;;;24.70;52.30;;;;;;2608988;54;20038;-74
2021/08/16 10:34:37;;;;;;;6.47;2.70;;;24.60;52.80;;;;;;2609113;54;20045;-75
2021/08/16 10:37:09;;;;;;;6.28;2.70;;;24.70;53.10;;;;;;2609427;54;20133;-77
2021/08/16 10:39:37;;;;;;;3.92;2.90;;;24.80;52.80;;;;;;2609362;54;20058;-76
2021/08/16 10:42:09;;;;;;;2.75;2.10;;;24.90;52.00;;;;;;2610050;54;20042;-75
2021/08/16 10:44:43;;;;;;;3.30;2.38;;;25.00;51.40;;;;;;2609443;54;20077;-76
2021/08/16 10:47:11;;;;;;;4.43;2.67;;;25.20;49.90;;;;;;2609656;54;20038;-76
2021/08/16 10:49:39;;;;;;;4.03;2.45;;;25.20;50.40;;;;;;2609818;54;20037;-77
2021/08/16 10:52:17;;;;;;;4.15;2.40;;;25.10;50.70;;;;;;2610037;54;20139;-77
2021/08/16 10:54:43;;;;;;;2.92;2.22;;;25.00;50.50;;;;;;2610116;54;20863;-78
2021/08/16 10:57:10;;;;;;;4.03;2.03;;;24.90;51.00;;;;;;2608880;54;20031;-76
2021/08/16 10:59:36;;;;;;;7.18;2.28;;;24.80;50.00;;;;;;2609588;54;20038;-76
2021/08/16 11:02:01;;;;;;;5.72;3.10;;;24.80;50.40;;;;;;2609562;54;20050;-75
2021/08/16 11:04:37;;;;;;;5.43;2.53;;;24.80;51.30;;;;;;2609671;54;20059;-75
2021/08/16 11:07:06;;;;;;;4.03;2.72;;;24.80;50.60;;;;;;2609559;54;20097;-76
2021/08/16 11:09:34;;;;;;;3.50;2.33;;;24.90;51.90;;;;;;2609949;54;20042;-76
2021/08/16 11:12:06;;;;;;;6.68;2.20;;;25.10;50.30;;;;;;2610040;39;21000;-79
2021/08/16 11:14:42;;;;;;;3.03;1.90;;;25.30;49.80;;;;;;2609675;54;20882;-76
2021/08/16 11:17:09;;;;;;;5.78;2.00;;;25.30;48.90;;;;;;2609443;54;20061;-77
2021/08/16 11:19:48;;;;;;;4.72;2.53;;;25.30;49.50;;;;;;2610454;54;20057;-78
2021/08/16 11:22:15;;;;;;;2.92;2.13;;;25.30;49.90;;;;;;2610259;47;20034;-78
2021/08/16 11:24:46;;;;;;;3.88;2.25;;;25.30;50.60;;;;;;2609381;54;20030;-78
2021/08/16 11:27:17;;;;;;;4.50;2.58;;;25.30;50.90;;;;;;2610257;54;20042;-74
2021/08/16 11:29:44;;;;;;;5.57;2.22;;;25.10;50.60;;;;;;2609469;54;20041;-76
2021/08/16 11:32:09;;;;;;;4.13;2.03;;;25.20;50.20;;;;;;2610094;51;20038;-76
2021/08/16 11:34:45;;;;;;;5.05;2.38;;;25.30;50.10;;;;;;2610564;54;20080;-76
2021/08/16 11:37:13;;;;;;;5.40;2.50;;;25.40;50.30;;;;;;2610412;54;20045;-75
2021/08/16 11:39:38;;;;;;;4.47;2.30;;;25.50;49.80;;;;;;2609942;54;20069;-75
2021/08/16 11:42:05;;;;;;;7.65;3.30;;;25.50;50.00;;;;;;2609824;54;20031;-75
2021/08/16 11:44:33;;;;;;;3.58;2.22;;;25.50;50.10;;;;;;2610182;54;20042;-74
2021/08/16 11:47:04;;;;;;;4.60;2.40;;;25.50;50.50;;;;;;2610550;54;20061;-74
2021/08/16 11:49:39;;;;;;;3.30;2.17;;;25.50;49.30;;;;;;2611270;54;20058;-74
2021/08/16 11:52:09;;;;;;;4.18;2.40;;;25.50;49.80;;;;;;2610902;54;20034;-75
2021/08/16 11:54:36;;;;;;;3.05;2.00;;;25.40;51.00;;;;;;2610311;47;20038;-74
2021/08/16 11:57:07;;;;;;;5.03;2.00;;;25.40;50.50;;;;;;2610644;54;20034;-74
2021/08/16 11:59:33;;;;;;;3.60;1.98;;;25.40;52.00;;;;;;2611148;39;20802;-75
2021/08/16 12:02:03;;;;;;;5.50;2.70;;;25.50;50.60;;;;;;2610645;54;20031;-74
2021/08/16 12:04:29;;;;;;;8.77;2.38;;;25.50;50.80;;;;;;2610299;54;20054;-72
2021/08/16 12:06:55;;;;;;;6.70;2.42;;;25.40;49.80;;;;;;2609946;54;20181;-74
2021/08/16 12:09:35;;;;;;;3.30;1.83;;;25.30;51.40;;;;;;2628490;36;20038;-74
2021/08/16 12:12:03;;;;;;;4.20;2.03;;;25.10;50.40;;;;;;2610576;54;20175;-72
2021/08/16 12:14:34;;;;;;;8.63;3.08;;;25.10;50.60;;;;;;2608640;54;20055;-73
2021/08/16 12:17:00;;;;;;;8.05;2.10;;;25.10;50.70;;;;;;2609069;47;20148;-73
2021/08/16 12:19:26;;;;;;;6.13;2.30;;;25.30;50.70;;;;;;2610172;54;20038;-72
2021/08/16 12:22:14;;;;;;;9.40;2.40;;;25.40;50.50;;;;;;2609907;54;20087;-72
2021/08/16 12:24:40;;;;;;;6.45;2.60;;;25.50;50.30;;;;;;2609085;47;20154;-72
2021/08/16 12:27:16;;;;;;;8.75;3.15;;;25.30;49.20;;;;;;2608661;54;20048;-72
2021/08/16 12:29:46;;;;;;;5.55;2.60;;;25.10;50.60;;;;;;2609426;54;20042;-72
2021/08/16 12:32:31;;;;;;;9.77;2.30;;;25.10;50.20;;;;;;2609512;54;20574;-72
2021/08/16 12:35:02;;;;;;;4.75;2.40;;;25.00;49.70;;;;;;2609210;54;20034;-72
2021/08/16 12:37:32;;;;;;;9.07;2.72;;;25.00;50.60;;;;;;2609319;54;20053;-72
2021/08/16 12:40:19;;;;;;;10.57;2.70;;;25.20;51.30;;;;;;2609702;54;20030;-72
2021/08/16 12:42:57;;;;;;;4.22;2.30;;;25.10;50.80;;;;;;2609694;54;20049;-72
2021/08/16 12:45:23;;;;;;;7.03;2.60;;;25.00;50.70;;;;;;2609635;54;20037;-75